< < Back
Terminal Aerodrome Forecast


Current Version              Previous Versions:   1  2  3  4  5  6  7  8  9  

Terminal Aerodrome Forecast

384
FTUS44 KHUN 292342
TAFHSV
TAF
KHSV 292342Z 3000/3024 15010KT P6SM FEW050 SCT120
     FM300300 17006KT P6SM SCT250
      TEMPO 3008/3012 SCT008 BKN015
     FM301400 19010KT P6SM SCT035 SCT050 SCT120=



Latest METAR

180
SAUS80 KWBC 300800 RRA
MTRHSV
METAR KHSV 300753Z AUTO 11004KT 10SM BKN050 21/18 A3009 RMK AO2 SLP182
T02060183 $


USA.gov is the U.S. government's official web portal to all federal, state and local government web resources and services.